createdAt,value
2019-06-20T00:01:25.321Z,5.83
2019-06-20T00:04:00.096Z,5.33
2019-06-20T00:06:33.873Z,5.83
2019-06-20T00:09:09.605Z,5.77
2019-06-20T00:11:53.407Z,5.97
2019-06-20T00:14:41.646Z,6.40
2019-06-20T00:17:29.790Z,5.73
2019-06-20T00:20:16.427Z,6.00
2019-06-20T00:22:50.574Z,5.60
2019-06-20T00:25:24.484Z,5.80
2019-06-20T00:28:18.528Z,5.40
2019-06-20T00:31:04.828Z,5.90
2019-06-20T00:33:57.526Z,5.70
2019-06-20T00:36:31.358Z,5.73
2019-06-20T00:39:05.913Z,5.13
2019-06-20T00:41:39.773Z,5.80
2019-06-20T00:44:13.315Z,5.23
2019-06-20T00:46:55.262Z,5.57
2019-06-20T00:49:28.813Z,5.70
2019-06-20T00:52:02.012Z,5.30
2019-06-20T00:54:35.734Z,5.07
2019-06-20T00:57:10.091Z,6.23
2019-06-20T00:59:55.106Z,6.00
2019-06-20T01:02:29.778Z,6.23
2019-06-20T01:05:03.661Z,6.33
2019-06-20T01:07:39.336Z,6.00
2019-06-20T01:10:24.395Z,5.97
2019-06-20T01:12:58.299Z,6.37
2019-06-20T01:15:32.061Z,5.63
2019-06-20T01:18:05.723Z,6.00
2019-06-20T01:20:51.513Z,6.10
2019-06-20T01:23:25.117Z,5.50
2019-06-20T01:25:59.407Z,5.63
2019-06-20T01:28:44.686Z,5.73
2019-06-20T01:31:33.090Z,6.43
2019-06-20T01:34:06.876Z,5.53
2019-06-20T01:36:54.971Z,5.47
2019-06-20T01:39:40.714Z,5.07
2019-06-20T01:42:27.395Z,5.47
2019-06-20T01:45:13.369Z,5.37
2019-06-20T01:47:59.995Z,5.07
2019-06-20T01:50:34.263Z,5.57
2019-06-20T01:53:07.718Z,5.30
2019-06-20T01:55:40.977Z,5.70
2019-06-20T01:58:25.001Z,5.43
2019-06-20T02:01:14.814Z,5.33
2019-06-20T02:04:01.133Z,5.77
2019-06-20T02:06:45.861Z,6.30
2019-06-20T02:09:23.002Z,5.70
2019-06-20T02:12:15.644Z,6.10
2019-06-20T02:15:02.032Z,6.10
2019-06-20T02:17:36.487Z,6.10
2019-06-20T02:20:32.295Z,6.83
2019-06-20T02:23:06.332Z,6.80
2019-06-20T02:25:52.424Z,6.70
2019-06-20T02:28:26.227Z,6.97
2019-06-20T02:31:11.422Z,6.47
2019-06-20T02:33:44.298Z,7.23
2019-06-20T02:36:29.185Z,6.93
2019-06-20T02:39:02.778Z,7.23
2019-06-20T02:41:37.913Z,6.90
2019-06-20T02:44:28.461Z,7.10
2019-06-20T02:46:46.562Z,6.97
2019-06-20T02:49:20.154Z,7.43
2019-06-20T02:51:54.108Z,7.30
2019-06-20T02:54:28.507Z,7.77
2019-06-20T02:57:02.239Z,7.80
2019-06-20T02:59:36.756Z,7.50
2019-06-20T03:02:10.202Z,7.27
2019-06-20T03:04:45.755Z,7.67
2019-06-20T03:07:37.381Z,7.63
2019-06-20T03:10:11.228Z,7.77
2019-06-20T03:13:03.363Z,7.90
2019-06-20T03:15:36.933Z,8.00
2019-06-20T03:18:10.530Z,8.53
2019-06-20T03:20:43.774Z,7.90
2019-06-20T03:23:17.315Z,7.50
2019-06-20T03:25:56.566Z,8.27
2019-06-20T03:28:29.755Z,8.33
2019-06-20T03:31:03.906Z,8.07
2019-06-20T03:33:55.715Z,7.47
2019-06-20T03:36:28.931Z,8.43
2019-06-20T03:39:02.297Z,8.20
2019-06-20T03:41:37.560Z,8.40
2019-06-20T03:44:11.806Z,8.93
2019-06-20T03:46:49.012Z,8.53
2019-06-20T03:49:34.985Z,8.87
2019-06-20T03:52:25.235Z,8.97
2019-06-20T03:54:59.134Z,9.70
2019-06-20T03:57:34.492Z,9.80
2019-06-20T04:00:19.645Z,11.00
2019-06-20T04:02:53.347Z,11.50
2019-06-20T04:05:26.840Z,11.80
2019-06-20T04:08:01.133Z,11.70
2019-06-20T04:10:35.906Z,12.10
2019-06-20T04:13:28.200Z,12.70
2019-06-20T04:16:01.744Z,13.43
2019-06-20T04:18:35.977Z,13.87
2019-06-20T04:21:27.371Z,15.03
2019-06-20T04:24:18.853Z,15.60
2019-06-20T04:26:51.594Z,14.83
2019-06-20T04:29:43.118Z,14.97
2019-06-20T04:32:16.780Z,16.87
2019-06-20T04:34:51.871Z,16.17
2019-06-20T04:37:25.576Z,15.70
2019-06-20T04:40:00.303Z,15.13
2019-06-20T04:42:36.855Z,16.83
2019-06-20T04:45:41.765Z,16.63
2019-06-20T04:48:15.401Z,16.17
2019-06-20T04:50:48.879Z,17.13
2019-06-20T04:53:22.449Z,17.77
2019-06-20T04:55:56.006Z,18.20
2019-06-20T04:58:29.606Z,17.73
2019-06-20T05:01:03.606Z,17.93
2019-06-20T05:03:37.251Z,18.77
2019-06-20T05:06:11.294Z,18.50
2019-06-20T05:08:45.094Z,17.70
2019-06-20T05:11:34.311Z,18.23
2019-06-20T05:14:18.478Z,18.83
2019-06-20T05:16:51.702Z,18.57
2019-06-20T05:19:26.802Z,19.27
2019-06-20T05:22:00.236Z,19.37
2019-06-20T05:24:33.805Z,21.10
2019-06-20T05:27:07.344Z,21.87
2019-06-20T05:29:40.906Z,23.23
2019-06-20T05:32:14.797Z,23.97
2019-06-20T05:34:48.191Z,26.80
2019-06-20T05:37:21.723Z,27.50
2019-06-20T05:39:55.365Z,28.80
2019-06-20T05:42:32.345Z,28.10
2019-06-20T05:45:06.991Z,29.83
2019-06-20T05:47:49.996Z,31.10
2019-06-20T05:50:23.512Z,30.00
2019-06-20T05:52:57.069Z,30.87
2019-06-20T05:55:30.619Z,30.30
2019-06-20T05:58:04.190Z,30.60
2019-06-20T06:00:37.543Z,29.80
2019-06-20T06:03:13.642Z,30.47
2019-06-20T06:05:46.208Z,29.53
2019-06-20T06:08:19.439Z,29.20
2019-06-20T06:11:11.866Z,29.33
2019-06-20T06:14:01.493Z,29.77
2019-06-20T06:16:34.709Z,31.17
2019-06-20T06:19:08.708Z,30.67
2019-06-20T06:21:42.423Z,30.17
2019-06-20T06:24:25.663Z,30.13
2019-06-20T06:27:00.096Z,29.60
2019-06-20T06:29:34.019Z,31.63
2019-06-20T06:32:07.700Z,31.63
2019-06-20T06:34:41.212Z,31.80
2019-06-20T06:37:14.786Z,34.23
2019-06-20T06:39:48.472Z,33.50
2019-06-20T06:42:21.991Z,32.43
2019-06-20T06:44:55.565Z,32.60
2019-06-20T06:47:28.772Z,33.77
2019-06-20T06:50:12.009Z,32.27
2019-06-20T06:52:45.224Z,32.67
2019-06-20T06:55:18.654Z,31.90
2019-06-20T06:57:52.269Z,32.13
2019-06-20T07:00:25.815Z,31.63
2019-06-20T07:02:59.434Z,31.73
2019-06-20T07:05:43.583Z,32.30
2019-06-20T07:08:17.539Z,33.83
2019-06-20T07:10:51.135Z,33.33
2019-06-20T07:13:24.786Z,34.77
2019-06-20T07:16:08.239Z,33.73
2019-06-20T07:18:41.479Z,33.87
2019-06-20T07:21:15.360Z,33.20
2019-06-20T07:23:48.916Z,33.93
2019-06-20T07:26:22.162Z,34.50
2019-06-20T07:28:55.751Z,34.83
2019-06-20T07:31:29.460Z,34.70
2019-06-20T07:34:03.006Z,34.77
2019-06-20T07:36:37.593Z,34.80
2019-06-20T07:39:24.311Z,35.53
2019-06-20T07:42:11.322Z,35.30
2019-06-20T07:44:45.148Z,35.33
2019-06-20T07:47:19.065Z,35.50
2019-06-20T07:49:53.707Z,33.00
2019-06-20T07:52:39.724Z,34.10
2019-06-20T07:55:14.481Z,35.17
2019-06-20T07:57:48.037Z,35.63
2019-06-20T08:00:21.767Z,34.13
2019-06-20T08:02:55.141Z,34.90
2019-06-20T08:05:29.438Z,34.97
2019-06-20T08:08:03.038Z,35.47
2019-06-20T08:10:37.016Z,34.40
2019-06-20T08:13:24.326Z,34.57
2019-06-20T08:15:59.038Z,34.57
2019-06-20T08:18:50.569Z,33.07
2019-06-20T08:21:36.428Z,32.47
2019-06-20T08:24:09.653Z,31.90
2019-06-20T08:26:43.412Z,29.87
2019-06-20T08:29:21.056Z,30.50
2019-06-20T08:31:52.070Z,29.73
2019-06-20T08:34:25.758Z,30.77
2019-06-20T08:37:00.501Z,28.80
2019-06-20T08:39:34.105Z,28.67
2019-06-20T08:42:16.958Z,27.50
2019-06-20T08:44:50.549Z,27.33
2019-06-20T08:47:23.924Z,28.20
2019-06-20T08:49:58.182Z,27.20
2019-06-20T08:52:32.579Z,26.43
2019-06-20T08:55:07.948Z,27.23
2019-06-20T08:57:41.485Z,26.57
2019-06-20T09:00:16.164Z,27.23
2019-06-20T09:05:55.475Z,26.67
2019-06-20T09:08:30.355Z,29.30
2019-06-20T09:11:15.670Z,29.57
2019-06-20T09:13:53.761Z,31.40
2019-06-20T09:16:28.220Z,29.50
2019-06-20T09:19:14.851Z,31.03
2019-06-20T09:22:02.263Z,29.50
2019-06-20T09:24:37.524Z,30.83
2019-06-20T09:27:12.514Z,29.83
2019-06-20T09:30:00.410Z,28.83
2019-06-20T09:32:34.856Z,27.73
2019-06-20T09:35:10.035Z,26.37
2019-06-20T09:37:44.412Z,24.27
2019-06-20T09:40:30.951Z,23.50
2019-06-20T09:43:27.673Z,20.53
2019-06-20T09:46:07.890Z,19.37
2019-06-20T09:48:46.811Z,19.40
2019-06-20T09:51:30.528Z,20.83
2019-06-20T09:54:03.512Z,20.50
2019-06-20T09:56:37.020Z,20.00
2019-06-20T09:59:26.913Z,19.50
2019-06-20T10:01:58.960Z,19.43
2019-06-20T10:04:37.942Z,18.63
2019-06-20T10:07:29.061Z,17.93
2019-06-20T10:10:05.419Z,16.77
2019-06-20T10:12:59.494Z,14.73
2019-06-20T10:15:38.243Z,12.97
2019-06-20T10:18:22.590Z,12.10
2019-06-20T10:21:16.142Z,13.70
2019-06-20T10:23:52.029Z,11.45
2019-06-20T10:26:49.608Z,12.07
2019-06-20T10:29:24.183Z,12.00
2019-06-20T10:31:57.828Z,10.83
2019-06-20T10:34:31.564Z,11.67
2019-06-20T10:37:05.124Z,11.07
2019-06-20T10:39:38.077Z,12.07
2019-06-20T10:42:24.390Z,11.50
2019-06-20T10:44:57.637Z,11.88
2019-06-20T10:47:35.113Z,12.97
2019-06-20T10:50:09.326Z,12.73
2019-06-20T10:52:43.661Z,12.97
2019-06-20T10:55:19.707Z,12.43
2019-06-20T10:57:53.042Z,12.73
2019-06-20T11:00:44.617Z,12.00
2019-06-20T11:03:20.274Z,11.37
2019-06-20T11:06:14.216Z,12.30
2019-06-20T11:08:47.936Z,12.27
2019-06-20T11:11:31.214Z,11.77
2019-06-20T11:14:21.661Z,11.27
2019-06-20T11:17:04.928Z,11.50
2019-06-20T11:19:39.739Z,11.60
2019-06-20T11:22:13.057Z,11.28
2019-06-20T11:24:47.425Z,11.77
2019-06-20T11:27:33.375Z,13.43
2019-06-20T11:30:07.965Z,14.30
2019-06-20T11:32:41.202Z,13.68
2019-06-20T11:35:26.370Z,13.05
2019-06-20T11:38:00.365Z,13.30
2019-06-20T11:40:33.585Z,12.18
2019-06-20T11:43:06.978Z,12.00
2019-06-20T11:45:41.284Z,10.68
2019-06-20T11:48:26.879Z,12.30
2019-06-20T11:51:00.239Z,10.93
2019-06-20T11:53:35.281Z,11.75
2019-06-20T11:56:09.067Z,11.15
2019-06-20T11:58:42.385Z,12.15
2019-06-20T12:01:15.626Z,10.32
2019-06-20T12:03:49.058Z,10.08
2019-06-20T12:06:22.463Z,10.13
2019-06-20T12:09:13.572Z,9.63
2019-06-20T12:11:48.783Z,9.77
2019-06-20T12:14:24.149Z,8.85
2019-06-20T12:16:57.686Z,8.27
2019-06-20T12:19:30.959Z,10.13
2019-06-20T12:22:10.319Z,8.83
2019-06-20T12:24:55.765Z,9.67
2019-06-20T12:27:29.641Z,9.18
2019-06-20T12:30:06.781Z,8.75
2019-06-20T12:32:55.156Z,8.03
2019-06-20T12:35:46.901Z,7.90
2019-06-20T12:38:46.227Z,8.33
2019-06-20T12:41:45.608Z,7.93
2019-06-20T12:44:31.844Z,8.23
2019-06-20T12:47:05.054Z,8.80
2019-06-20T12:49:40.114Z,9.03
2019-06-20T12:52:14.886Z,8.63
2019-06-20T12:54:49.154Z,9.15
2019-06-20T12:57:23.134Z,10.35
2019-06-20T13:00:13.310Z,9.35
2019-06-20T13:02:59.028Z,8.10
2019-06-20T13:05:33.395Z,8.53
2019-06-20T13:08:13.548Z,9.70
2019-06-20T13:10:46.266Z,9.15
2019-06-20T13:13:20.309Z,8.65
2019-06-20T13:16:07.187Z,9.33
2019-06-20T13:18:41.378Z,7.90
2019-06-20T13:21:18.959Z,10.15
2019-06-20T13:23:56.242Z,9.10
2019-06-20T13:26:29.716Z,8.55
2019-06-20T13:29:04.439Z,9.45
2019-06-20T13:31:54.862Z,8.30
2019-06-20T13:34:13.792Z,9.10
2019-06-20T13:36:47.072Z,8.70
2019-06-20T13:39:20.624Z,8.55
2019-06-20T13:41:53.651Z,8.63
2019-06-20T13:44:39.594Z,9.18
2019-06-20T13:47:23.743Z,9.48
2019-06-20T13:49:57.331Z,10.78
2019-06-20T13:52:33.962Z,10.88
2019-06-20T13:55:06.514Z,9.80
2019-06-20T13:57:52.938Z,10.60
2019-06-20T14:00:27.557Z,10.03
2019-06-20T14:03:01.453Z,8.60
2019-06-20T14:05:34.868Z,9.05
2019-06-20T14:08:11.381Z,8.43
2019-06-20T14:10:46.046Z,9.13
2019-06-20T14:13:19.936Z,10.15
2019-06-20T14:15:53.810Z,10.23
2019-06-20T14:18:27.617Z,9.48
2019-06-20T14:21:00.827Z,8.40
2019-06-20T14:23:34.324Z,7.28
2019-06-20T14:26:26.590Z,7.10
2019-06-20T14:29:12.836Z,7.72
2019-06-20T14:31:47.445Z,8.58
2019-06-20T14:34:20.857Z,8.80
2019-06-20T14:36:56.219Z,7.30
2019-06-20T14:39:30.093Z,8.78
2019-06-20T14:42:03.336Z,8.58
2019-06-20T14:44:36.675Z,7.15
2019-06-20T14:47:11.096Z,8.30
2019-06-20T14:49:46.007Z,7.95
2019-06-20T14:52:19.548Z,9.15
2019-06-20T14:54:54.004Z,11.20
2019-06-20T14:57:46.970Z,8.98
2019-06-20T15:00:22.389Z,10.03
2019-06-20T15:02:58.226Z,8.78
2019-06-20T15:05:30.721Z,9.88
2019-06-20T15:08:05.877Z,12.85
2019-06-20T15:10:39.630Z,11.55
2019-06-20T15:13:12.835Z,12.37
2019-06-20T15:15:47.795Z,12.50
2019-06-20T15:18:22.170Z,11.68
2019-06-20T15:20:58.995Z,12.03
2019-06-20T15:23:31.457Z,8.15
2019-06-20T15:26:04.893Z,6.33
2019-06-20T15:28:38.532Z,4.60
2019-06-20T15:31:10.710Z,3.52
2019-06-20T15:33:46.185Z,3.20
2019-06-20T15:36:20.244Z,3.50
2019-06-20T15:38:55.055Z,3.30
2019-06-20T15:41:42.580Z,3.10
2019-06-20T15:44:16.576Z,3.20
2019-06-20T15:46:50.128Z,3.30
2019-06-20T15:49:24.091Z,3.37
2019-06-20T15:52:10.594Z,3.50
2019-06-20T15:54:43.864Z,4.47
2019-06-20T15:57:17.215Z,3.80
2019-06-20T15:59:50.887Z,4.60
2019-06-20T16:02:22.758Z,4.60
2019-06-20T16:04:55.994Z,6.10
2019-06-20T16:07:29.248Z,6.93
2019-06-20T16:10:21.135Z,6.17
2019-06-20T16:13:07.018Z,6.50
2019-06-20T16:15:59.081Z,8.00
2019-06-20T16:18:45.116Z,6.20
2019-06-20T16:21:28.724Z,8.83
2019-06-20T16:24:02.060Z,8.20
2019-06-20T16:26:35.869Z,7.77
2019-06-20T16:29:09.601Z,8.40
2019-06-20T16:31:43.465Z,9.47
2019-06-20T16:34:32.725Z,10.93
2019-06-20T16:37:10.202Z,10.67
2019-06-20T16:39:41.101Z,9.23
2019-06-20T16:42:25.364Z,10.47
2019-06-20T16:44:59.209Z,14.28
2019-06-20T16:47:45.695Z,14.07
2019-06-20T16:50:29.051Z,15.30
2019-06-20T16:53:02.294Z,13.77
2019-06-20T16:55:35.601Z,14.03
2019-06-20T16:58:08.826Z,14.83
2019-06-20T17:00:53.639Z,12.82
2019-06-20T17:03:40.705Z,11.90
2019-06-20T17:06:02.216Z,15.10
2019-06-20T17:08:35.829Z,13.73
2019-06-20T17:11:09.166Z,13.98
2019-06-20T17:13:42.689Z,12.98
2019-06-20T17:16:15.963Z,13.60
2019-06-20T17:18:59.122Z,12.68
2019-06-20T17:21:35.625Z,12.90
2019-06-20T17:24:10.768Z,12.80
2019-06-20T17:26:46.023Z,12.93
2019-06-20T17:29:38.873Z,11.45
2019-06-20T17:32:12.463Z,12.55
2019-06-20T17:35:10.447Z,12.70
2019-06-20T17:37:48.660Z,12.80
2019-06-20T17:40:26.305Z,13.48
2019-06-20T17:43:21.617Z,15.95
2019-06-20T17:45:56.795Z,15.08
2019-06-20T17:48:33.626Z,15.72
2019-06-20T17:51:07.971Z,16.32
2019-06-20T17:53:43.828Z,16.45
2019-06-20T17:56:30.085Z,15.80
2019-06-20T17:59:03.740Z,15.93
2019-06-20T18:01:38.097Z,17.12
2019-06-20T18:04:13.946Z,17.82
2019-06-20T18:06:49.497Z,19.32
2019-06-20T18:09:22.311Z,18.87
2019-06-20T18:11:59.860Z,19.02
2019-06-20T18:14:44.158Z,16.40
2019-06-20T18:17:17.748Z,17.17
2019-06-20T18:19:51.368Z,16.40
2019-06-20T18:22:25.981Z,16.37
2019-06-20T18:25:21.763Z,16.53
2019-06-20T18:28:13.001Z,17.15
2019-06-20T18:30:46.704Z,14.80
2019-06-20T18:33:23.352Z,15.03
2019-06-20T18:35:57.985Z,15.47
2019-06-20T18:38:31.628Z,18.40
2019-06-20T18:41:05.970Z,16.53
2019-06-20T18:43:39.327Z,16.07
2019-06-20T18:46:12.993Z,16.00
2019-06-20T18:48:45.743Z,16.03
2019-06-20T18:51:31.782Z,15.73
2019-06-20T18:54:05.674Z,17.90
2019-06-20T18:56:52.427Z,16.73
2019-06-20T18:59:24.327Z,17.00
2019-06-20T19:01:58.980Z,14.60
2019-06-20T19:04:45.336Z,15.10
2019-06-20T19:07:08.671Z,14.47
2019-06-20T19:09:54.802Z,16.47
2019-06-20T19:12:31.590Z,19.07
2019-06-20T19:15:07.774Z,17.50
2019-06-20T19:18:03.872Z,18.10
2019-06-20T19:20:50.163Z,15.97
2019-06-20T19:23:25.429Z,16.50
2019-06-20T19:25:59.228Z,15.27
2019-06-20T19:28:32.740Z,14.47
2019-06-20T19:31:06.131Z,15.17
2019-06-20T19:33:51.948Z,14.20
2019-06-20T19:36:28.314Z,14.73
2019-06-20T19:39:14.434Z,13.50
2019-06-20T19:42:07.757Z,13.67
2019-06-20T19:44:42.777Z,12.07
2019-06-20T19:47:17.792Z,12.03
2019-06-20T19:49:51.706Z,12.20
2019-06-20T19:52:25.550Z,11.90
2019-06-20T19:55:02.234Z,11.63
2019-06-20T19:57:41.723Z,10.93
2019-06-20T20:00:17.785Z,10.60
2019-06-20T20:03:01.396Z,9.80
2019-06-20T20:05:35.579Z,11.10
2019-06-20T20:08:24.974Z,14.10
2019-06-20T20:11:03.247Z,16.40
2019-06-20T20:13:36.877Z,16.13
2019-06-20T20:16:20.760Z,16.70
2019-06-20T20:19:04.449Z,17.07
2019-06-20T20:21:37.878Z,17.03
2019-06-20T20:24:11.335Z,16.77
2019-06-20T20:26:45.030Z,17.47
2019-06-20T20:29:18.966Z,17.13
2019-06-20T20:31:53.758Z,19.47
2019-06-20T20:34:29.767Z,19.33
2019-06-20T20:37:23.678Z,19.40
2019-06-20T20:40:00.834Z,19.17
2019-06-20T20:42:35.507Z,19.27
2019-06-20T20:45:10.078Z,19.30
2019-06-20T20:47:56.249Z,19.07
2019-06-20T20:50:35.152Z,21.30
2019-06-20T20:53:08.741Z,19.93
2019-06-20T20:55:42.364Z,19.73
2019-06-20T20:58:16.751Z,20.60
2019-06-20T21:01:22.188Z,21.87
2019-06-20T21:04:14.012Z,23.43
2019-06-20T21:06:48.029Z,22.10
2019-06-20T21:09:34.133Z,23.27
2019-06-20T21:12:07.143Z,23.00
2019-06-20T21:14:44.945Z,22.87
2019-06-20T21:17:38.447Z,23.63
2019-06-20T21:20:11.869Z,23.27
2019-06-20T21:22:45.253Z,24.30
2019-06-20T21:25:20.294Z,25.50
2019-06-20T21:27:53.207Z,24.13
2019-06-20T21:30:27.516Z,24.50
2019-06-20T21:33:12.785Z,24.90
2019-06-20T21:35:46.354Z,23.97
2019-06-20T21:38:31.209Z,25.10
2019-06-20T21:41:05.740Z,24.47
2019-06-20T21:43:41.593Z,25.37
2019-06-20T21:46:15.201Z,23.90
2019-06-20T21:48:48.880Z,25.60
2019-06-20T21:51:21.735Z,26.03
2019-06-20T21:53:55.484Z,27.33
2019-06-20T21:56:29.324Z,26.83
2019-06-20T21:59:03.739Z,26.17
2019-06-20T22:01:40.798Z,26.33
2019-06-20T22:04:26.646Z,26.73
2019-06-20T22:07:00.333Z,25.83
2019-06-20T22:09:58.551Z,26.67
2019-06-20T22:12:34.438Z,26.40
2019-06-20T22:15:08.950Z,25.87
2019-06-20T22:17:54.883Z,27.23
2019-06-20T22:20:34.463Z,24.07
2019-06-20T22:23:12.132Z,23.87
2019-06-20T22:25:45.766Z,22.73
2019-06-20T22:28:31.312Z,19.30
2019-06-20T22:31:05.040Z,19.90
2019-06-20T22:33:38.247Z,17.87
2019-06-20T22:36:11.629Z,18.20
2019-06-20T22:38:46.244Z,17.80
2019-06-20T22:41:39.099Z,17.50
2019-06-20T22:44:12.709Z,18.10
2019-06-20T22:46:47.280Z,19.13
2019-06-20T22:49:32.368Z,18.83
2019-06-20T22:52:11.645Z,18.60
2019-06-20T22:54:47.512Z,17.90
2019-06-20T22:57:23.407Z,18.00
2019-06-20T23:00:13.221Z,16.63
2019-06-20T23:03:00.881Z,16.57
2019-06-20T23:05:38.783Z,17.27
2019-06-20T23:08:12.652Z,16.80
2019-06-20T23:10:47.955Z,17.17
2019-06-20T23:13:21.518Z,17.23
2019-06-20T23:15:54.760Z,18.33
2019-06-20T23:18:30.346Z,18.13
2019-06-20T23:21:05.142Z,18.83
2019-06-20T23:23:47.297Z,17.23
2019-06-20T23:26:20.965Z,16.60
2019-06-20T23:29:12.134Z,15.80
2019-06-20T23:31:48.143Z,14.80
2019-06-20T23:34:33.906Z,15.67
2019-06-20T23:37:12.793Z,15.60
2019-06-20T23:39:43.777Z,14.87
2019-06-20T23:42:18.336Z,15.10
2019-06-20T23:45:12.400Z,14.97
2019-06-20T23:47:45.632Z,14.87
2019-06-20T23:50:33.037Z,13.93
2019-06-20T23:53:15.935Z,13.03
2019-06-20T23:56:09.626Z,12.97
2019-06-20T23:58:43.495Z,14.50
